Time;durP1;ratioP1;P1;durP2;ratioP2;P2;SDS_P1;SDS_P2;PMS_P1;PMS_P2;Temp;Humidity;BMP_temperature;BMP_pressure;BME280_temperature;BME280_humidity;BME280_pressure;Samples;Min_cycle;Max_cycle;Signal;HPM_P1;HPM_P2
2021/12/18 00:01:58;;;;;;;24.20;17.87;;;3.80;89.20;;;2.63;89.40;100031.44;5091519;28;20508;-66
2021/12/18 00:04:25;;;;;;;25.70;19.63;;;4.00;88.20;;;2.68;88.62;100021.28;5087987;28;20833;-66
2021/12/18 00:06:52;;;;;;;20.27;16.90;;;4.00;87.50;;;2.52;88.32;100019.78;5092443;28;20945;-68
2021/12/18 00:09:19;;;;;;;30.20;18.13;;;4.00;85.90;;;2.46;88.73;100016.72;5085906;28;20559;-67
2021/12/18 00:11:48;;;;;;;24.40;17.40;;;4.00;85.70;;;2.64;88.04;100018.00;5088932;28;21231;-67
2021/12/18 00:14:16;;;;;;;21.07;16.80;;;4.00;85.50;;;2.64;87.99;100020.66;5080462;28;20468;-66
2021/12/18 00:16:43;;;;;;;22.97;16.47;;;4.00;85.70;;;2.79;86.94;100007.97;5087712;28;20521;-67
2021/12/18 00:19:10;;;;;;;22.23;17.00;;;4.10;84.70;;;2.58;87.54;100010.47;5086184;28;21727;-67
2021/12/18 00:21:37;;;;;;;22.67;17.60;;;4.00;84.70;;;2.52;88.21;100011.78;5086025;28;21132;-66
2021/12/18 00:24:05;;;;;;;20.13;15.97;;;4.00;84.90;;;2.59;88.15;100008.63;5091278;28;20499;-68
2021/12/18 00:26:33;;;;;;;23.47;16.93;;;4.00;85.60;;;2.38;88.88;100009.28;5088488;28;20448;-67
2021/12/18 00:29:02;;;;;;;22.73;16.27;;;3.90;85.50;;;2.36;89.39;100019.22;5098696;27;20459;-67
2021/12/18 00:31:29;;;;;;;21.10;16.23;;;3.90;85.90;;;2.26;89.88;100022.53;5093260;28;20560;-67
2021/12/18 00:33:56;;;;;;;24.10;17.73;;;3.80;86.90;;;2.44;89.25;100014.16;5088768;28;20463;-67
2021/12/18 00:36:23;;;;;;;22.37;17.10;;;3.90;87.30;;;2.44;89.63;100018.66;5086930;28;20452;-67
2021/12/18 00:38:50;;;;;;;24.93;18.90;;;3.90;87.40;;;2.63;88.54;100023.44;5090321;28;20499;-68
2021/12/18 00:41:35;;;;;;;22.47;16.33;;;4.00;86.40;;;2.75;87.36;100027.03;5085719;28;20576;-67
2021/12/18 00:44:04;;;;;;;24.17;17.40;;;4.10;85.30;;;2.73;87.48;100029.81;5085139;28;20918;-67
2021/12/18 00:46:35;;;;;;;22.40;17.03;;;4.20;84.60;;;2.47;88.70;100029.09;5082962;28;20799;-67
2021/12/18 00:49:04;;;;;;;23.40;18.00;;;4.00;85.20;;;2.39;88.68;100033.16;5081969;28;20464;-67
2021/12/18 00:51:31;;;;;;;23.40;17.30;;;3.90;85.70;;;2.29;89.87;100037.50;5089360;28;20454;-67
2021/12/18 00:53:59;;;;;;;25.80;18.97;;;3.80;86.40;;;2.23;90.90;100038.78;5095054;28;20555;-67
2021/12/18 00:56:26;;;;;;;26.00;19.17;;;3.70;88.60;;;2.32;90.69;100037.25;5091029;28;20539;-67
2021/12/18 00:58:53;;;;;;;25.80;19.47;;;3.80;89.50;;;2.37;89.85;100039.59;5087800;28;20468;-66
2021/12/18 01:01:24;;;;;;;22.70;18.53;;;3.80;88.80;;;2.35;90.90;100042.34;5082112;28;20445;-66
2021/12/18 01:03:53;;;;;;;27.30;19.23;;;3.90;89.10;;;2.34;90.66;100038.00;5088834;28;20464;-66
2021/12/18 01:06:22;;;;;;;27.10;18.70;;;3.90;89.30;;;2.47;90.87;100039.75;5091393;28;20490;-66
2021/12/18 01:08:53;;;;;;;24.47;19.13;;;3.90;90.00;;;2.58;89.65;100049.63;5095284;28;20498;-66
2021/12/18 01:11:36;;;;;;;30.00;20.83;;;4.00;88.50;;;2.58;89.52;100044.28;5084417;28;21023;-66
2021/12/18 01:14:26;;;;;;;25.27;17.77;;;4.00;88.00;;;2.55;89.57;100043.56;5079628;28;20456;-66
2021/12/18 01:22:41;;;;;;;24.40;18.87;;;4.00;88.40;;;2.62;89.37;100048.44;5091988;28;20932;-67
2021/12/18 01:25:14;;;;;;;25.80;20.13;;;4.10;87.20;;;2.50;89.84;100051.06;5082100;28;20544;-67
2021/12/18 01:27:42;;;;;;;24.83;19.33;;;4.10;87.40;;;2.63;89.13;100048.31;5094725;28;20470;-67
2021/12/18 01:30:12;;;;;;;24.97;18.77;;;4.10;87.40;;;2.62;89.62;100048.44;5085418;28;20501;-67
2021/12/18 01:32:41;;;;;;;23.70;18.30;;;4.00;87.90;;;2.78;88.44;100058.81;5090042;28;20543;-67
2021/12/18 01:35:09;;;;;;;27.80;19.73;;;4.20;87.30;;;2.57;89.28;100054.09;5088541;28;20531;-67
2021/12/18 01:37:36;;;;;;;24.87;19.90;;;4.10;86.50;;;2.42;90.97;100048.09;5087629;28;20566;-67
2021/12/18 01:40:05;;;;;;;24.93;19.10;;;3.90;89.10;;;2.31;91.08;100056.03;5088209;28;20471;-67
2021/12/18 01:43:23;;;;;;;25.40;20.07;;;3.80;89.20;;;2.42;90.98;100045.44;5083416;28;20468;-70
2021/12/18 01:45:46;;;;;;;28.57;19.27;;;3.90;90.10;;;2.16;91.75;100055.34;5100115;28;20537;-68
2021/12/18 01:51:18;;;;;;;26.13;19.10;;;3.80;90.20;;;2.10;92.58;100051.31;5090890;28;20506;-67
2021/12/18 01:53:47;;;;;;;26.53;19.10;;;3.60;90.60;;;1.95;93.36;100055.91;5082022;28;20547;-68
2021/12/18 01:56:14;;;;;;;30.37;20.63;;;3.50;91.40;;;1.90;93.75;100058.94;5088108;28;21164;-67
2021/12/18 01:58:44;;;;;;;33.27;21.13;;;3.50;91.80;;;1.85;93.45;100037.06;5086099;28;20513;-67
2021/12/18 02:01:12;;;;;;;30.40;20.77;;;3.50;92.10;;;2.22;92.63;100057.56;5089248;28;20445;-66
2021/12/18 02:03:40;;;;;;;26.40;18.93;;;3.60;91.50;;;2.25;92.82;100047.53;5100880;28;21356;-67
2021/12/18 02:06:08;;;;;;;27.70;20.53;;;3.70;91.30;;;2.49;91.32;100043.16;5088363;28;21818;-66
2021/12/18 02:08:38;;;;;;;26.30;19.60;;;3.80;90.70;;;2.34;91.17;100045.13;5090018;28;20494;-66
2021/12/18 02:11:26;;;;;;;25.07;18.77;;;3.80;90.00;;;2.35;91.59;100047.69;5092290;28;20539;-67
2021/12/18 02:14:23;;;;;;;31.37;19.97;;;3.80;90.60;;;2.39;90.75;100027.00;5086090;28;20947;-67
2021/12/18 02:22:27;;;;;;;28.53;20.47;;;3.70;90.50;;;2.43;90.46;100033.78;5086798;27;20460;-67
2021/12/18 02:24:54;;;;;;;29.63;20.60;;;3.80;90.10;;;2.23;91.76;100032.59;5093492;28;20460;-68
2021/12/18 02:27:21;;;;;;;26.27;19.60;;;3.80;90.10;;;2.07;92.56;100025.69;5088377;28;20555;-67
2021/12/18 02:29:48;;;;;;;26.60;18.83;;;3.60;90.70;;;2.09;92.99;100033.59;5086287;28;20472;-68
2021/12/18 02:32:19;;;;;;;24.00;19.37;;;3.60;91.30;;;2.25;92.06;100036.84;5087036;28;20471;-67
2021/12/18 02:34:52;;;;;;;27.80;20.23;;;3.70;91.30;;;2.16;92.56;100031.34;5100539;27;20444;-66
2021/12/18 02:37:28;;;;;;;28.57;19.90;;;3.70;91.40;;;2.50;91.35;100028.84;5089029;28;21081;-67
2021/12/18 02:42:40;;;;;;;23.90;19.83;;;3.90;90.30;;;2.55;91.04;100038.22;5111359;27;20521;-67
2021/12/18 02:45:08;;;;;;;29.50;20.43;;;3.90;90.50;;;2.38;91.31;100023.44;5087796;28;20559;-68
2021/12/18 02:47:35;;;;;;;26.70;19.57;;;3.80;90.00;;;2.60;91.10;100026.34;5088035;28;20487;-68
2021/12/18 02:50:03;;;;;;;23.43;17.60;;;3.90;90.50;;;2.80;89.66;100031.03;5087264;28;20547;-67
2021/12/18 02:52:32;;;;;;;25.40;17.60;;;4.10;89.30;;;2.55;89.88;100016.00;5088765;28;20466;-67
2021/12/18 02:54:59;;;;;;;25.97;19.20;;;4.10;87.70;;;2.50;90.48;100018.19;5088535;28;20476;-68
2021/12/18 02:57:26;;;;;;;26.50;18.90;;;4.00;89.50;;;2.36;91.48;100017.38;5091292;28;20463;-67
2021/12/18 02:59:57;;;;;;;27.63;18.77;;;3.90;90.20;;;2.43;91.06;100022.25;5088909;28;20460;-67
2021/12/18 03:02:25;;;;;;;28.77;19.37;;;3.90;90.10;;;2.39;91.49;100017.16;5086848;28;20458;-67
2021/12/18 03:04:57;;;;;;;28.47;19.00;;;3.90;90.30;;;2.61;90.55;100030.72;5083619;28;20543;-67
2021/12/18 03:07:26;;;;;;;27.27;20.10;;;4.00;89.80;;;2.34;91.30;100008.66;5091752;28;20542;-67
2021/12/18 03:24:08;;;;;;;27.23;20.20;;;4.00;90.40;;;2.39;91.59;100001.13;5090501;28;20486;-67
2021/12/18 03:26:36;;;;;;;30.53;21.90;;;3.90;90.30;;;2.30;92.14;99992.97;5092952;28;20543;-67
2021/12/18 03:29:04;;;;;;;29.37;19.97;;;3.80;90.70;;;2.42;92.55;99997.41;5085066;28;21231;-67
2021/12/18 03:31:33;;;;;;;29.10;18.70;;;3.80;91.50;;;2.25;93.23;100004.84;5087821;28;20460;-67
2021/12/18 03:34:01;;;;;;;27.33;18.83;;;3.80;91.30;;;2.51;92.12;99998.53;5093459;28;21007;-66
2021/12/18 03:36:28;;;;;;;28.40;19.70;;;3.90;91.60;;;2.72;90.42;100001.41;5086674;28;20462;-66
2021/12/18 03:38:55;;;;;;;28.80;20.27;;;4.00;90.20;;;2.80;89.92;100000.81;5090649;28;20562;-67
2021/12/18 03:41:22;;;;;;;29.40;19.93;;;4.10;89.80;;;2.83;88.94;99997.91;5090174;28;20460;-67
2021/12/18 03:43:50;;;;;;;25.43;18.93;;;4.20;88.50;;;2.67;89.77;99996.41;5084730;28;21247;-67
2021/12/18 03:46:17;;;;;;;26.57;19.27;;;4.10;88.80;;;2.44;90.60;99998.13;5081196;28;20937;-66
2021/12/18 03:48:44;;;;;;;26.10;19.00;;;4.00;89.00;;;2.47;91.47;100007.75;5089462;28;20540;-67
2021/12/18 03:51:11;;;;;;;26.13;19.43;;;3.90;90.20;;;2.39;90.96;99995.81;5090976;28;20802;-66
2021/12/18 03:53:38;;;;;;;29.70;20.47;;;3.90;89.90;;;2.45;91.75;100002.50;5084670;28;21094;-68
2021/12/18 03:56:06;;;;;;;29.20;20.70;;;3.90;90.60;;;2.47;90.80;99994.41;5086584;28;20916;-67
2021/12/18 03:58:33;;;;;;;26.77;19.70;;;4.00;89.90;;;2.53;91.39;100001.94;5084464;28;20514;-67
2021/12/18 04:01:02;;;;;;;26.43;20.10;;;4.00;90.30;;;2.51;91.65;100004.72;5085962;28;20496;-69
2021/12/18 04:03:28;;;;;;;26.33;19.77;;;4.00;90.30;;;2.66;90.94;100004.56;5086569;28;20468;-66
2021/12/18 04:05:56;;;;;;;26.60;19.97;;;4.00;90.70;;;2.64;90.48;100010.00;5087901;28;20576;-68
2021/12/18 04:08:23;;;;;;;26.33;19.43;;;4.10;89.90;;;2.67;90.41;100003.56;5086118;28;20813;-67
2021/12/18 04:10:50;;;;;;;25.73;19.40;;;4.10;89.90;;;2.48;91.04;99999.59;5082740;28;20514;-66
2021/12/18 04:13:18;;;;;;;27.10;20.00;;;4.00;90.10;;;2.70;90.93;100000.66;5088258;28;20465;-66
2021/12/18 04:15:45;;;;;;;27.73;19.53;;;4.00;90.10;;;2.55;91.04;99995.53;5081779;28;20467;-68
2021/12/18 04:18:13;;;;;;;26.43;18.70;;;4.00;90.10;;;2.44;91.55;99990.13;5086603;28;20524;-68
2021/12/18 04:20:40;;;;;;;27.00;18.03;;;3.90;90.30;;;2.41;91.62;99995.69;5090966;28;20458;-67
2021/12/18 04:23:07;;;;;;;27.63;18.70;;;3.90;90.10;;;2.38;91.52;99998.59;5086771;28;20917;-67
2021/12/18 04:25:34;;;;;;;26.67;19.67;;;3.90;90.90;;;2.51;91.59;100004.72;5099212;28;20459;-67
2021/12/18 04:28:01;;;;;;;27.77;19.50;;;3.90;90.70;;;2.47;91.58;100013.91;5090332;28;20544;-68
2021/12/18 04:30:28;;;;;;;28.40;20.30;;;3.90;90.60;;;2.31;91.98;99997.34;5085384;28;20452;-67
2021/12/18 04:32:55;;;;;;;27.53;19.33;;;3.90;90.20;;;2.30;92.40;100004.50;5091644;28;20528;-67
2021/12/18 04:35:24;;;;;;;26.97;19.90;;;3.80;90.70;;;2.50;92.02;100008.38;5101506;28;20447;-67
2021/12/18 04:37:51;;;;;;;31.20;23.13;;;3.90;91.20;;;2.52;91.49;100010.91;5094070;28;21180;-67
2021/12/18 04:40:18;;;;;;;28.27;20.20;;;3.90;91.00;;;2.42;91.84;100005.41;5102148;28;20506;-67
2021/12/18 04:42:45;;;;;;;29.93;20.63;;;3.90;90.30;;;2.40;92.53;100004.66;5084590;28;20452;-67
2021/12/18 04:45:12;;;;;;;27.17;19.60;;;3.90;91.20;;;2.33;92.43;100009.59;5085425;28;20575;-67
2021/12/18 04:47:39;;;;;;;29.90;20.07;;;3.90;91.00;;;2.40;92.18;100012.69;5088785;28;20554;-67
2021/12/18 04:50:08;;;;;;;30.23;21.37;;;3.90;90.70;;;2.37;92.24;100008.41;5089498;28;20506;-67
2021/12/18 04:52:36;;;;;;;27.10;20.37;;;3.90;90.40;;;2.43;92.30;100007.09;5088069;28;20476;-68
2021/12/18 04:55:05;;;;;;;28.80;20.07;;;3.90;90.70;;;2.30;92.69;100006.31;5089985;28;20469;-67
2021/12/18 04:57:32;;;;;;;25.93;18.27;;;3.90;90.60;;;2.31;92.86;100003.53;5084956;28;20463;-67
2021/12/18 04:59:59;;;;;;;29.17;19.80;;;3.80;91.20;;;2.31;93.49;100005.34;5086240;28;20864;-67
2021/12/18 05:02:35;;;;;;;27.57;19.87;;;3.70;92.60;;;2.41;92.98;100006.38;5089831;28;20482;-67
2021/12/18 05:05:03;;;;;;;27.87;18.70;;;3.80;91.80;;;2.61;92.31;100004.03;5096929;28;20453;-68
2021/12/18 05:07:30;;;;;;;32.13;21.10;;;3.90;91.70;;;2.50;92.07;100003.03;5084886;28;20475;-68
2021/12/18 05:09:58;;;;;;;26.40;18.40;;;4.00;91.20;;;2.41;92.81;99999.22;5088180;28;20514;-69
2021/12/18 05:12:26;;;;;;;28.70;19.50;;;3.90;91.60;;;2.30;93.59;100006.31;5095267;28;20487;-67
2021/12/18 05:14:53;;;;;;;27.57;19.37;;;3.80;91.90;;;2.26;94.05;99990.53;5087130;28;20549;-67
2021/12/18 05:17:20;;;;;;;29.80;20.40;;;3.80;92.50;;;2.35;94.25;99996.13;5084778;28;20496;-67
2021/12/18 05:19:47;;;;;;;32.67;20.50;;;3.80;93.20;;;2.23;94.13;99996.09;5089443;28;20499;-68
2021/12/18 05:22:14;;;;;;;29.40;20.00;;;3.70;92.50;;;2.36;94.17;99989.88;5086957;28;20459;-68
2021/12/18 05:24:41;;;;;;;26.73;19.47;;;3.80;92.50;;;2.28;93.57;100001.09;5087972;28;20484;-69
2021/12/18 05:27:12;;;;;;;28.07;19.60;;;3.80;92.10;;;2.30;94.06;99996.50;5085478;28;22867;-67
2021/12/18 05:29:39;;;;;;;29.57;20.90;;;3.70;93.20;;;2.28;93.95;100000.25;5082668;28;21975;-68
2021/12/18 05:32:07;;;;;;;30.70;20.60;;;3.70;92.60;;;2.23;94.16;100000.56;5099088;28;20488;-68
2021/12/18 05:34:37;;;;;;;28.00;20.03;;;3.70;93.30;;;2.42;94.04;100005.41;5089600;28;20547;-67
2021/12/18 05:37:17;;;;;;;28.03;20.20;;;3.80;93.30;;;2.41;92.85;100003.69;5094118;28;20502;-67
2021/12/18 05:39:45;;;;;;;28.53;19.67;;;3.90;91.80;;;2.21;93.88;100003.38;5092035;28;20460;-68
2021/12/18 05:42:13;;;;;;;29.70;20.00;;;3.70;92.20;;;2.28;93.95;99994.91;5101215;28;20465;-68
2021/12/18 05:44:41;;;;;;;32.60;21.37;;;3.70;92.40;;;2.36;94.04;99995.19;5087632;28;20486;-68
2021/12/18 05:47:08;;;;;;;28.93;20.03;;;3.80;93.00;;;2.17;94.14;100001.03;5079912;28;20551;-68
2021/12/18 05:49:36;;;;;;;29.10;20.13;;;3.70;92.70;;;2.34;94.31;100011.31;5091025;28;20495;-68
2021/12/18 05:52:03;;;;;;;32.13;21.00;;;3.70;93.60;;;2.49;93.27;100011.13;5090275;28;20860;-68
2021/12/18 05:54:34;;;;;;;31.00;21.60;;;3.80;92.80;;;2.39;93.47;100005.63;5092419;28;20460;-66
2021/12/18 05:57:02;;;;;;;27.40;20.50;;;3.80;92.70;;;2.08;94.67;99998.06;5099984;28;20963;-67
2021/12/18 05:59:30;;;;;;;25.30;18.40;;;3.70;92.70;;;1.98;95.27;100013.88;5090502;28;20491;-66
2021/12/18 06:01:57;;;;;;;28.17;20.90;;;3.50;93.60;;;2.21;94.78;100018.50;5089456;28;20451;-67
2021/12/18 06:04:24;;;;;;;27.73;20.53;;;3.60;94.10;;;2.23;94.78;100022.78;5088761;28;20480;-67
2021/12/18 06:06:51;;;;;;;28.67;19.83;;;3.60;93.70;;;2.07;95.09;100019.53;5097342;28;20494;-70
2021/12/18 06:09:18;;;;;;;30.13;19.97;;;3.60;93.00;;;2.13;94.88;100016.41;5091625;28;20534;-65
2021/12/18 06:11:45;;;;;;;28.13;20.10;;;3.60;93.60;;;2.07;94.92;100019.53;5093320;28;20487;-67
2021/12/18 06:14:12;;;;;;;28.20;20.67;;;3.60;93.10;;;2.22;94.65;100026.41;5088775;28;21055;-68
2021/12/18 06:16:40;;;;;;;26.63;19.70;;;3.60;94.00;;;2.42;92.71;100016.06;5095814;28;20563;-67
2021/12/18 06:19:07;;;;;;;25.60;17.17;;;3.80;92.50;;;2.50;92.24;100018.19;5091867;28;20463;-67
2021/12/18 06:21:34;;;;;;;29.27;20.30;;;3.90;91.40;;;2.50;92.49;100028.84;5093217;28;20552;-67
2021/12/18 06:24:01;;;;;;;26.30;18.63;;;3.90;91.20;;;2.36;93.14;100019.22;5084762;28;20917;-67
2021/12/18 06:26:28;;;;;;;28.30;20.40;;;3.90;91.60;;;2.14;94.50;100026.09;5092551;28;20452;-67
2021/12/18 06:28:56;;;;;;;26.00;19.37;;;3.70;93.00;;;2.16;93.87;100024.19;5087840;28;20517;-67
2021/12/18 06:31:24;;;;;;;25.20;20.27;;;3.70;92.40;;;2.23;95.02;100032.59;5092020;28;20454;-66
2021/12/18 06:33:52;;;;;;;29.40;20.43;;;3.60;93.80;;;2.12;94.42;100036.91;5105831;28;20811;-66
2021/12/18 06:36:19;;;;;;;28.77;20.80;;;3.60;93.10;;;2.09;95.37;100026.44;5089501;28;20866;-67
2021/12/18 06:38:47;;;;;;;28.50;21.03;;;3.60;94.50;;;2.28;94.85;100029.59;5094441;28;20496;-66
2021/12/18 06:41:14;;;;;;;33.07;20.37;;;3.70;93.90;;;2.31;94.02;100029.34;5087816;28;21125;-67
2021/12/18 06:43:41;;;;;;;26.73;20.13;;;3.80;93.10;;;2.18;95.14;100029.41;5092036;28;20460;-67
2021/12/18 06:46:08;;;;;;;26.10;18.93;;;3.70;93.80;;;2.08;94.54;100029.22;5084969;28;20525;-66
2021/12/18 06:48:35;;;;;;;24.83;19.00;;;3.60;93.00;;;2.00;96.18;100026.25;5091110;28;20454;-66
2021/12/18 06:51:04;;;;;;;28.07;21.00;;;3.50;95.00;;;1.83;96.41;100023.00;5091487;28;20452;-67
2021/12/18 06:53:31;;;;;;;27.83;20.20;;;3.40;94.70;;;1.75;97.08;100030.69;5086200;28;20884;-67
2021/12/18 06:55:58;;;;;;;33.30;21.27;;;3.30;95.70;;;1.85;96.98;100029.06;5092113;28;20525;-66
2021/12/18 06:58:25;;;;;;;28.30;20.07;;;3.30;96.50;;;2.11;95.62;100029.00;5085808;28;21129;-66
2021/12/18 07:00:53;;;;;;;26.83;18.37;;;3.50;96.10;;;2.32;96.50;100028.38;5083190;28;20552;-66
2021/12/18 07:03:21;;;;;;;24.00;19.13;;;3.60;97.50;;;2.17;94.82;100031.22;5090942;28;20495;-66
2021/12/18 07:05:49;;;;;;;24.07;18.57;;;3.70;93.40;;;2.17;93.95;100033.88;5090358;28;20475;-67
2021/12/18 07:08:18;;;;;;;25.67;20.03;;;3.70;92.80;;;2.02;95.06;100035.00;5086606;28;20460;-67
2021/12/18 07:10:45;;;;;;;26.50;20.00;;;3.60;93.40;;;2.23;94.35;100037.91;5086077;28;20530;-67
2021/12/18 07:13:12;;;;;;;26.90;19.63;;;3.60;93.40;;;2.30;94.53;100033.84;5081826;28;20448;-68
2021/12/18 07:15:42;;;;;;;24.90;19.93;;;3.70;93.20;;;2.14;93.96;100022.59;5082571;28;20463;-69
2021/12/18 07:18:09;;;;;;;19.90;16.50;;;3.70;92.70;;;2.23;93.50;100036.13;5093235;28;20630;-68
2021/12/18 07:20:36;;;;;;;29.40;19.77;;;3.70;91.80;;;2.02;93.77;100003.00;5096705;28;20928;-68
2021/12/18 07:23:03;;;;;;;25.63;19.60;;;3.80;92.10;;;2.28;93.95;100042.91;5094919;28;20558;-69
2021/12/18 07:25:32;;;;;;;22.07;17.73;;;3.70;93.00;;;2.25;93.63;100047.53;5099018;28;20488;-68
2021/12/18 07:27:59;;;;;;;23.97;18.37;;;3.80;92.40;;;2.48;93.06;100050.31;5087989;28;20468;-68
2021/12/18 07:30:26;;;;;;;24.10;17.93;;;3.80;92.30;;;2.31;92.53;100024.88;5086042;28;20529;-68
2021/12/18 07:32:53;;;;;;;24.47;18.03;;;3.90;91.00;;;2.48;92.53;100052.97;5089484;28;20876;-68
2021/12/18 07:35:20;;;;;;;23.90;16.73;;;3.90;91.10;;;2.38;92.82;100054.63;5089878;28;20902;-68
2021/12/18 07:37:47;;;;;;;26.70;18.30;;;3.90;91.20;;;2.25;93.65;100047.53;5091916;28;20569;-69
2021/12/18 07:40:16;;;;;;;25.60;19.53;;;3.70;92.00;;;2.57;92.89;100042.59;5087188;28;20475;-68
2021/12/18 07:42:45;;;;;;;24.03;18.10;;;3.90;92.00;;;2.53;92.61;100041.97;5099921;27;20895;-68
2021/12/18 07:45:13;;;;;;;25.13;18.90;;;3.90;91.90;;;2.40;92.49;100044.69;5080083;28;20593;-69
2021/12/18 07:47:40;;;;;;;23.90;18.77;;;3.90;91.30;;;2.40;92.66;100045.53;5099653;28;20478;-69
2021/12/18 07:50:17;;;;;;;25.60;18.40;;;3.90;91.40;;;2.43;92.43;100038.25;5087336;28;20559;-69
2021/12/18 07:52:44;;;;;;;22.33;18.00;;;3.90;91.10;;;2.57;92.80;100042.59;5108346;28;20484;-68
2021/12/18 07:55:11;;;;;;;19.47;15.27;;;3.90;91.70;;;2.78;90.92;100040.97;5085791;28;20461;-69
2021/12/18 07:57:39;;;;;;;20.80;15.80;;;4.20;90.50;;;2.53;90.76;100045.50;5089317;28;20465;-70
2021/12/18 08:00:11;;;;;;;23.53;15.73;;;4.10;89.30;;;2.38;91.37;100047.47;5092698;28;20464;-78
2021/12/18 08:02:38;;;;;;;23.80;15.63;;;4.00;90.30;;;2.59;92.24;100046.00;5097816;28;20540;-67
2021/12/18 08:05:07;;;;;;;19.57;15.30;;;4.10;90.90;;;2.65;91.42;100045.53;5089607;28;20475;-69
2021/12/18 08:07:34;;;;;;;17.90;14.97;;;4.10;90.40;;;2.35;91.13;100017.47;5089982;28;20468;-69
2021/12/18 08:10:01;;;;;;;21.80;16.87;;;3.90;90.10;;;2.53;91.32;100045.50;5082049;28;20589;-70
2021/12/18 08:12:28;;;;;;;22.80;17.57;;;3.90;90.50;;;2.77;91.33;100039.28;5087332;28;20459;-69
2021/12/18 08:14:55;;;;;;;20.70;15.57;;;4.10;91.10;;;2.72;91.21;100037.91;5085995;28;20531;-69
2021/12/18 08:17:24;;;;;;;21.70;17.60;;;4.20;90.60;;;2.92;90.58;100039.09;5086105;28;20456;-70
2021/12/18 08:19:51;;;;;;;20.20;16.30;;;4.40;90.00;;;2.74;91.99;100039.50;5087020;28;20523;-69
2021/12/18 08:22:18;;;;;;;24.53;18.63;;;4.30;90.30;;;2.68;92.05;100037.31;5094115;28;20515;-70
2021/12/18 08:24:45;;;;;;;22.73;18.17;;;4.20;90.30;;;2.80;90.85;100033.69;5081605;28;20484;-70
2021/12/18 08:27:12;;;;;;;22.73;17.30;;;4.30;89.60;;;2.68;91.27;100031.97;5091407;28;20472;-69
2021/12/18 08:29:40;;;;;;;25.43;17.90;;;4.20;90.10;;;2.60;90.83;100043.22;5089615;28;20456;-70
2021/12/18 08:32:08;;;;;;;23.27;17.63;;;4.20;89.20;;;2.65;90.76;100043.72;5087174;28;20505;-69
2021/12/18 08:34:36;;;;;;;20.77;15.77;;;4.20;89.10;;;2.75;91.16;100037.72;5080291;28;20448;-70
2021/12/18 08:37:04;;;;;;;20.83;15.57;;;4.20;90.50;;;2.68;89.96;100031.97;5091209;28;20927;-69
2021/12/18 08:39:31;;;;;;;20.70;15.10;;;4.20;89.50;;;2.50;90.46;100021.72;5091232;28;20456;-69
2021/12/18 08:42:03;;;;;;;20.70;14.80;;;4.10;89.10;;;2.64;90.33;100049.16;5088749;28;20459;-70
2021/12/18 08:44:30;;;;;;;18.27;14.87;;;4.00;89.60;;;2.57;91.05;100045.25;5085632;28;21126;-70
2021/12/18 08:46:57;;;;;;;19.83;15.10;;;4.00;89.50;;;2.55;91.03;100038.22;5086162;28;20460;-70
2021/12/18 08:49:24;;;;;;;19.27;14.37;;;4.00;89.90;;;2.54;91.92;100041.84;5084711;28;20464;-69
2021/12/18 08:51:53;;;;;;;24.70;16.50;;;4.00;90.50;;;3.00;91.06;100041.16;5087525;28;20456;-69
2021/12/18 08:54:20;;;;;;;22.30;15.87;;;4.30;90.80;;;2.86;89.85;100034.22;5083668;28;20488;-69
2021/12/18 08:56:48;;;;;;;24.90;16.53;;;4.40;87.50;;;2.83;89.81;100030.81;5088332;28;20824;-72
2021/12/18 08:59:15;;;;;;;22.40;16.53;;;4.40;88.00;;;2.79;90.97;99999.97;5099628;28;20536;-75
2021/12/18 09:01:42;;;;;;;21.30;17.13;;;4.40;90.80;;;2.94;90.26;100039.81;5094387;28;20806;-76
2021/12/18 09:04:09;;;;;;;22.23;16.30;;;4.40;88.40;;;2.84;90.15;100047.66;5089837;28;20436;-75
2021/12/18 09:06:36;;;;;;;19.00;15.73;;;4.40;87.40;;;2.95;90.19;100044.19;5092606;28;20499;-76
2021/12/18 09:09:06;;;;;;;21.50;17.10;;;4.40;89.00;;;2.89;90.05;100042.84;5082953;28;20459;-77
2021/12/18 09:11:33;;;;;;;21.40;17.20;;;4.40;87.80;;;3.11;90.99;100041.22;5089825;28;20459;-76
2021/12/18 09:14:02;;;;;;;23.87;18.10;;;4.50;90.30;;;3.08;88.61;100028.94;5086578;28;20457;-76
2021/12/18 09:16:30;;;;;;;22.80;16.80;;;4.60;87.50;;;3.32;89.46;100036.03;5090630;28;20456;-77
2021/12/18 09:18:57;;;;;;;20.30;17.13;;;4.70;88.00;;;3.21;88.46;100025.31;5092209;28;20485;-74
2021/12/18 09:21:25;;;;;;;25.33;17.63;;;4.70;87.40;;;3.03;89.33;100035.59;5095517;28;20455;-75
2021/12/18 09:23:52;;;;;;;20.63;14.77;;;4.60;86.30;;;2.94;90.42;100045.16;5089189;28;21069;-76
2021/12/18 09:26:21;;;;;;;21.20;17.10;;;4.40;89.00;;;3.16;88.66;100019.50;5092563;28;20541;-77
2021/12/18 09:28:48;;;;;;;23.10;16.77;;;4.60;87.00;;;3.48;88.09;100008.94;5090375;28;20486;-76
2021/12/18 09:31:15;;;;;;;23.23;16.57;;;4.90;86.60;;;3.10;88.81;100032.31;5091535;28;20476;-75
2021/12/18 09:33:42;;;;;;;19.60;15.13;;;4.70;85.40;;;3.06;89.50;100041.56;5088066;28;20997;-74
2021/12/18 09:36:09;;;;;;;20.00;16.60;;;4.60;86.40;;;2.82;89.58;100029.13;5087369;28;20534;-76
2021/12/18 09:38:36;;;;;;;21.97;16.57;;;4.40;86.50;;;2.82;90.48;100042.47;5084991;28;20501;-75
2021/12/18 09:41:06;;;;;;;24.37;17.50;;;4.40;88.60;;;2.92;90.82;100023.06;5087493;28;20512;-75
2021/12/18 09:43:35;;;;;;;24.40;17.63;;;4.40;89.20;;;2.91;91.14;100011.53;5092212;28;20456;-78
2021/12/18 09:46:05;;;;;;;24.10;17.83;;;4.40;90.00;;;3.15;90.85;100023.97;5087431;28;21096;-78
2021/12/18 09:48:33;;;;;;;28.00;17.97;;;4.50;90.50;;;3.23;89.58;99988.66;5087533;28;20873;-77
2021/12/18 09:51:06;;;;;;;24.37;17.90;;;4.70;89.00;;;3.31;88.77;100023.66;5083757;28;20543;-78
2021/12/18 09:53:34;;;;;;;22.43;17.10;;;4.70;87.20;;;3.05;89.12;100015.81;5092691;28;20448;-76
2021/12/18 09:56:03;;;;;;;24.23;16.60;;;4.60;86.70;;;2.98;89.67;100006.59;5092131;28;21154;-76
2021/12/18 09:58:30;;;;;;;21.17;17.37;;;4.60;86.70;;;2.77;89.16;99983.22;5110206;28;20528;-74
2021/12/18 10:00:59;;;;;;;23.77;17.90;;;4.50;86.30;;;2.74;90.06;99999.47;5098825;28;20871;-76
2021/12/18 10:03:46;;;;;;;23.10;17.67;;;4.40;87.00;;;2.96;89.41;100013.88;5090245;28;20445;-77
2021/12/18 10:06:33;;;;;;;23.50;15.67;;;4.40;87.20;;;3.02;90.74;100005.38;5097005;28;21231;-76
2021/12/18 10:09:01;;;;;;;21.60;15.67;;;4.40;90.10;;;3.24;88.78;100019.72;5087848;28;20468;-76
2021/12/18 10:11:28;;;;;;;22.10;15.57;;;4.60;86.90;;;3.23;89.36;100020.69;5101193;28;20444;-76
2021/12/18 10:13:57;;;;;;;24.00;16.67;;;4.60;86.60;;;3.13;87.98;100014.38;5083966;28;20522;-74
2021/12/18 10:16:28;;;;;;;23.07;16.73;;;4.70;85.40;;;3.24;88.36;100004.56;5104501;28;20509;-75
2021/12/18 10:18:56;;;;;;;24.00;15.90;;;4.70;85.90;;;2.91;88.99;100002.66;5091150;28;20456;-76
2021/12/18 10:21:27;;;;;;;20.87;15.93;;;4.60;85.50;;;3.00;89.06;100012.66;5088682;28;20451;-74
2021/12/18 10:23:59;;;;;;;19.53;15.30;;;4.50;86.40;;;2.98;88.80;100001.25;5099878;28;20688;-74
2021/12/18 10:26:35;;;;;;;22.67;16.30;;;4.50;86.40;;;3.09;88.93;100003.91;5093391;28;20468;-74
2021/12/18 10:29:03;;;;;;;24.47;18.00;;;4.50;86.60;;;3.13;88.85;100009.88;5098534;28;20567;-75
2021/12/18 10:31:44;;;;;;;21.40;16.17;;;4.50;87.50;;;3.45;88.77;100003.84;5094143;28;20484;-76
2021/12/18 10:34:22;;;;;;;28.40;17.37;;;4.70;87.70;;;3.73;87.04;100001.66;5094141;28;20512;-76
2021/12/18 10:37:20;;;;;;;20.10;15.17;;;4.90;85.90;;;3.44;86.49;99996.81;5102940;27;20517;-77
2021/12/18 10:40:00;;;;;;;18.20;13.80;;;4.90;83.90;;;3.39;87.17;99988.31;5085372;28;20440;-75
2021/12/18 10:42:30;;;;;;;23.23;19.30;;;4.80;84.20;;;3.66;87.32;99987.94;5086968;28;20498;-73
2021/12/18 10:45:20;;;;;;;19.93;16.27;;;5.00;85.90;;;3.61;86.56;99987.47;5087434;28;20459;-68
2021/12/18 10:47:56;;;;;;;19.00;15.67;;;5.00;84.10;;;3.96;86.00;99981.09;5083674;28;20521;-68
2021/12/18 10:50:34;;;;;;;23.30;16.67;;;5.20;83.90;;;4.65;82.99;99975.53;5086829;28;20455;-72
2021/12/18 10:53:05;;;;;;;19.30;14.37;;;5.80;82.00;;;4.38;82.96;99975.00;5108743;27;20444;-72